sensor_id;sensor_type;location;lat;lon;timestamp;pressure;altitude;pressure_sealevel;temperature;humidity
3917;BME280;1973;50.518;7.318;2023-04-26T00:01:06;101185.75;;;6.58;100.00
3917;BME280;1973;50.518;7.318;2023-04-26T00:03:33;101180.63;;;6.55;100.00
3917;BME280;1973;50.518;7.318;2023-04-26T00:06:00;101185.63;;;6.52;100.00
3917;BME280;1973;50.518;7.318;2023-04-26T00:08:34;101184.25;;;6.48;100.00
3917;BME280;1973;50.518;7.318;2023-04-26T00:11:01;101197.44;;;6.44;100.00
3917;BME280;1973;50.518;7.318;2023-04-26T00:13:27;101201.56;;;6.40;100.00
3917;BME280;1973;50.518;7.318;2023-04-26T00:15:54;101189.28;;;6.36;100.00
3917;BME280;1973;50.518;7.318;2023-04-26T00:18:20;101192.56;;;6.31;100.00
3917;BME280;1973;50.518;7.318;2023-04-26T00:20:47;101201.97;;;6.29;100.00
3917;BME280;1973;50.518;7.318;2023-04-26T00:23:13;101189.69;;;6.25;100.00
3917;BME280;1973;50.518;7.318;2023-04-26T00:25:40;101195.69;;;6.20;100.00
3917;BME280;1973;50.518;7.318;2023-04-26T00:28:06;101194.72;;;6.13;100.00
3917;BME280;1973;50.518;7.318;2023-04-26T00:30:34;101193.69;;;6.06;100.00
3917;BME280;1973;50.518;7.318;2023-04-26T00:33:02;101183.47;;;6.00;100.00
3917;BME280;1973;50.518;7.318;2023-04-26T00:35:29;101185.88;;;5.95;100.00
3917;BME280;1973;50.518;7.318;2023-04-26T00:37:56;101188.28;;;5.90;100.00
3917;BME280;1973;50.518;7.318;2023-04-26T00:40:22;101192.72;;;5.83;100.00
3917;BME280;1973;50.518;7.318;2023-04-26T00:42:56;101192.03;;;5.81;100.00
3917;BME280;1973;50.518;7.318;2023-04-26T00:45:22;101191.72;;;5.76;100.00
3917;BME280;1973;50.518;7.318;2023-04-26T00:47:49;101185.75;;;5.72;100.00
3917;BME280;1973;50.518;7.318;2023-04-26T00:50:16;101187.28;;;5.67;100.00
3917;BME280;1973;50.518;7.318;2023-04-26T00:52:44;101182.19;;;5.64;100.00
3917;BME280;1973;50.518;7.318;2023-04-26T00:55:13;101178.59;;;5.55;100.00
3917;BME280;1973;50.518;7.318;2023-04-26T00:57:39;101180.19;;;5.50;100.00
3917;BME280;1973;50.518;7.318;2023-04-26T01:00:07;101168.75;;;5.46;100.00
3917;BME280;1973;50.518;7.318;2023-04-26T01:02:33;101177.44;;;5.42;100.00
3917;BME280;1973;50.518;7.318;2023-04-26T01:05:00;101171.50;;;5.38;100.00
3917;BME280;1973;50.518;7.318;2023-04-26T01:07:26;101178.47;;;5.32;100.00
3917;BME280;1973;50.518;7.318;2023-04-26T01:09:54;101186.00;;;5.30;100.00
3917;BME280;1973;50.518;7.318;2023-04-26T01:12:21;101193.84;;;5.25;100.00
3917;BME280;1973;50.518;7.318;2023-04-26T01:14:48;101188.06;;;5.20;100.00
3917;BME280;1973;50.518;7.318;2023-04-26T01:17:15;101187.72;;;5.15;100.00
3917;BME280;1973;50.518;7.318;2023-04-26T01:19:48;101193.50;;;5.12;100.00
3917;BME280;1973;50.518;7.318;2023-04-26T01:22:15;101191.13;;;5.09;100.00
3917;BME280;1973;50.518;7.318;2023-04-26T01:24:42;101196.94;;;5.06;100.00
3917;BME280;1973;50.518;7.318;2023-04-26T01:27:09;101199.13;;;5.03;100.00
3917;BME280;1973;50.518;7.318;2023-04-26T01:29:36;101197.94;;;4.97;100.00
3917;BME280;1973;50.518;7.318;2023-04-26T01:32:02;101204.75;;;4.93;100.00
3917;BME280;1973;50.518;7.318;2023-04-26T01:34:29;101199.13;;;4.86;100.00
3917;BME280;1973;50.518;7.318;2023-04-26T01:36:55;101203.88;;;4.76;100.00
3917;BME280;1973;50.518;7.318;2023-04-26T01:39:22;101199.59;;;4.74;100.00
3917;BME280;1973;50.518;7.318;2023-04-26T01:41:48;101197.56;;;4.68;100.00
3917;BME280;1973;50.518;7.318;2023-04-26T01:44:15;101198.06;;;4.63;100.00
3917;BME280;1973;50.518;7.318;2023-04-26T01:46:41;101200.41;;;4.58;100.00
3917;BME280;1973;50.518;7.318;2023-04-26T01:49:08;101202.63;;;4.55;100.00
3917;BME280;1973;50.518;7.318;2023-04-26T01:51:34;101202.97;;;4.52;100.00
3917;BME280;1973;50.518;7.318;2023-04-26T01:54:01;101197.84;;;4.49;100.00
3917;BME280;1973;50.518;7.318;2023-04-26T01:56:28;101202.63;;;4.47;100.00
3917;BME280;1973;50.518;7.318;2023-04-26T01:58:54;101195.63;;;4.44;100.00
3917;BME280;1973;50.518;7.318;2023-04-26T02:01:21;101199.53;;;4.41;100.00
3917;BME280;1973;50.518;7.318;2023-04-26T02:03:48;101203.63;;;4.37;100.00
3917;BME280;1973;50.518;7.318;2023-04-26T02:06:14;101198.50;;;4.34;100.00
3917;BME280;1973;50.518;7.318;2023-04-26T02:08:41;101197.47;;;4.27;100.00
3917;BME280;1973;50.518;7.318;2023-04-26T02:11:07;101195.38;;;4.21;100.00
3917;BME280;1973;50.518;7.318;2023-04-26T02:13:34;101199.63;;;4.16;100.00
3917;BME280;1973;50.518;7.318;2023-04-26T02:16:00;101200.81;;;4.13;100.00
3917;BME280;1973;50.518;7.318;2023-04-26T02:18:27;101203.84;;;4.10;100.00
3917;BME280;1973;50.518;7.318;2023-04-26T02:20:55;101201.44;;;4.07;100.00
3917;BME280;1973;50.518;7.318;2023-04-26T02:23:21;101196.53;;;4.03;100.00
3917;BME280;1973;50.518;7.318;2023-04-26T02:25:49;101201.25;;;4.01;100.00
3917;BME280;1973;50.518;7.318;2023-04-26T02:28:16;101202.44;;;3.98;100.00
3917;BME280;1973;50.518;7.318;2023-04-26T02:30:42;101204.66;;;3.95;100.00
3917;BME280;1973;50.518;7.318;2023-04-26T02:33:10;101203.06;;;3.92;100.00
3917;BME280;1973;50.518;7.318;2023-04-26T02:35:36;101205.97;;;3.90;100.00
3917;BME280;1973;50.518;7.318;2023-04-26T02:38:02;101206.13;;;3.89;100.00
3917;BME280;1973;50.518;7.318;2023-04-26T02:40:29;101204.94;;;3.83;100.00
3917;BME280;1973;50.518;7.318;2023-04-26T02:42:56;101211.53;;;3.81;100.00
3917;BME280;1973;50.518;7.318;2023-04-26T02:45:22;101205.41;;;3.79;100.00
3917;BME280;1973;50.518;7.318;2023-04-26T02:47:49;101209.31;;;3.76;100.00
3917;BME280;1973;50.518;7.318;2023-04-26T02:50:15;101206.22;;;3.71;100.00
3917;BME280;1973;50.518;7.318;2023-04-26T02:52:42;101198.53;;;3.67;100.00
3917;BME280;1973;50.518;7.318;2023-04-26T02:55:08;101204.28;;;3.64;100.00
3917;BME280;1973;50.518;7.318;2023-04-26T02:57:35;101201.19;;;3.59;100.00
3917;BME280;1973;50.518;7.318;2023-04-26T03:00:02;101204.22;;;3.56;100.00
3917;BME280;1973;50.518;7.318;2023-04-26T03:02:30;101207.59;;;3.50;100.00
3917;BME280;1973;50.518;7.318;2023-04-26T03:04:57;101210.66;;;3.47;100.00
3917;BME280;1973;50.518;7.318;2023-04-26T03:07:24;101208.94;;;3.46;100.00
3917;BME280;1973;50.518;7.318;2023-04-26T03:09:51;101210.41;;;3.40;100.00
3917;BME280;1973;50.518;7.318;2023-04-26T03:12:17;101210.75;;;3.37;100.00
3917;BME280;1973;50.518;7.318;2023-04-26T03:14:43;101218.91;;;3.37;100.00
3917;BME280;1973;50.518;7.318;2023-04-26T03:17:10;101211.91;;;3.34;100.00
3917;BME280;1973;50.518;7.318;2023-04-26T03:19:37;101211.25;;;3.32;100.00
3917;BME280;1973;50.518;7.318;2023-04-26T03:22:03;101210.53;;;3.30;100.00
3917;BME280;1973;50.518;7.318;2023-04-26T03:24:30;101209.00;;;3.28;100.00
3917;BME280;1973;50.518;7.318;2023-04-26T03:26:57;101206.41;;;3.26;100.00
3917;BME280;1973;50.518;7.318;2023-04-26T03:29:23;101211.16;;;3.24;100.00
3917;BME280;1973;50.518;7.318;2023-04-26T03:31:49;101200.59;;;3.21;100.00
3917;BME280;1973;50.518;7.318;2023-04-26T03:34:16;101201.75;;;3.19;100.00
3917;BME280;1973;50.518;7.318;2023-04-26T03:36:42;101203.94;;;3.15;100.00
3917;BME280;1973;50.518;7.318;2023-04-26T03:39:09;101197.81;;;3.13;100.00
3917;BME280;1973;50.518;7.318;2023-04-26T03:41:36;101195.41;;;3.10;100.00
3917;BME280;1973;50.518;7.318;2023-04-26T03:44:04;101195.72;;;3.07;100.00
3917;BME280;1973;50.518;7.318;2023-04-26T03:46:31;101193.16;;;3.06;100.00
3917;BME280;1973;50.518;7.318;2023-04-26T03:48:58;101193.63;;;3.01;100.00
3917;BME280;1973;50.518;7.318;2023-04-26T03:51:24;101200.94;;;3.01;100.00
3917;BME280;1973;50.518;7.318;2023-04-26T03:53:53;101201.25;;;2.98;100.00
3917;BME280;1973;50.518;7.318;2023-04-26T03:56:19;101199.00;;;2.93;100.00
3917;BME280;1973;50.518;7.318;2023-04-26T03:58:46;101199.31;;;2.90;100.00
3917;BME280;1973;50.518;7.318;2023-04-26T04:01:12;101198.44;;;2.89;100.00
3917;BME280;1973;50.518;7.318;2023-04-26T04:03:39;101198.63;;;2.88;100.00
3917;BME280;1973;50.518;7.318;2023-04-26T04:06:07;101205.06;;;2.87;100.00
3917;BME280;1973;50.518;7.318;2023-04-26T04:08:33;101209.78;;;2.85;100.00
3917;BME280;1973;50.518;7.318;2023-04-26T04:11:00;101199.94;;;2.84;100.00
3917;BME280;1973;50.518;7.318;2023-04-26T04:13:27;101204.53;;;2.83;100.00
3917;BME280;1973;50.518;7.318;2023-04-26T04:15:53;101211.09;;;2.81;100.00
3917;BME280;1973;50.518;7.318;2023-04-26T04:18:20;101212.81;;;2.82;100.00
3917;BME280;1973;50.518;7.318;2023-04-26T04:20:46;101213.00;;;2.80;100.00
3917;BME280;1973;50.518;7.318;2023-04-26T04:23:13;101208.56;;;2.79;100.00
3917;BME280;1973;50.518;7.318;2023-04-26T04:25:39;101210.56;;;2.77;100.00
3917;BME280;1973;50.518;7.318;2023-04-26T04:28:06;101217.19;;;2.75;100.00
3917;BME280;1973;50.518;7.318;2023-04-26T04:30:33;101223.94;;;2.71;100.00
3917;BME280;1973;50.518;7.318;2023-04-26T04:33:00;101226.81;;;2.69;100.00
3917;BME280;1973;50.518;7.318;2023-04-26T04:35:30;101230.00;;;2.65;100.00
3917;BME280;1973;50.518;7.318;2023-04-26T04:37:59;101225.56;;;2.64;100.00
3917;BME280;1973;50.518;7.318;2023-04-26T04:40:26;101234.72;;;2.63;100.00
3917;BME280;1973;50.518;7.318;2023-04-26T04:42:53;101229.28;;;2.63;100.00
3917;BME280;1973;50.518;7.318;2023-04-26T04:45:20;101231.84;;;2.64;100.00
3917;BME280;1973;50.518;7.318;2023-04-26T04:47:47;101235.56;;;2.63;100.00
3917;BME280;1973;50.518;7.318;2023-04-26T04:50:13;101232.72;;;2.65;100.00
3917;BME280;1973;50.518;7.318;2023-04-26T04:52:40;101239.00;;;2.65;100.00
3917;BME280;1973;50.518;7.318;2023-04-26T04:55:07;101244.25;;;2.67;100.00
3917;BME280;1973;50.518;7.318;2023-04-26T04:57:34;101245.13;;;2.67;100.00
3917;BME280;1973;50.518;7.318;2023-04-26T05:00:01;101248.56;;;2.69;100.00
3917;BME280;1973;50.518;7.318;2023-04-26T05:02:35;101244.97;;;2.69;100.00
3917;BME280;1973;50.518;7.318;2023-04-26T05:05:03;101250.09;;;2.72;100.00
3917;BME280;1973;50.518;7.318;2023-04-26T05:07:31;101250.66;;;2.75;100.00
3917;BME280;1973;50.518;7.318;2023-04-26T05:09:58;101247.78;;;2.77;100.00
3917;BME280;1973;50.518;7.318;2023-04-26T05:12:25;101251.19;;;2.79;100.00
3917;BME280;1973;50.518;7.318;2023-04-26T05:14:51;101250.88;;;2.82;100.00
3917;BME280;1973;50.518;7.318;2023-04-26T05:17:18;101249.56;;;2.86;100.00
3917;BME280;1973;50.518;7.318;2023-04-26T05:19:45;101254.38;;;2.92;100.00
3917;BME280;1973;50.518;7.318;2023-04-26T05:22:11;101256.81;;;2.95;100.00
3917;BME280;1973;50.518;7.318;2023-04-26T05:24:46;101259.91;;;3.00;100.00
3917;BME280;1973;50.518;7.318;2023-04-26T05:27:13;101255.19;;;3.02;100.00
3917;BME280;1973;50.518;7.318;2023-04-26T05:29:40;101270.53;;;3.11;100.00
3917;BME280;1973;50.518;7.318;2023-04-26T05:32:07;101271.81;;;3.17;100.00
3917;BME280;1973;50.518;7.318;2023-04-26T05:34:34;101269.97;;;3.25;100.00
3917;BME280;1973;50.518;7.318;2023-04-26T05:37:03;101274.50;;;3.34;100.00
3917;BME280;1973;50.518;7.318;2023-04-26T05:39:30;101276.44;;;3.42;100.00
3917;BME280;1973;50.518;7.318;2023-04-26T05:41:57;101283.50;;;3.53;100.00
3917;BME280;1973;50.518;7.318;2023-04-26T05:44:23;101289.69;;;3.63;100.00
3917;BME280;1973;50.518;7.318;2023-04-26T05:46:50;101287.88;;;3.71;100.00
3917;BME280;1973;50.518;7.318;2023-04-26T05:49:16;101276.34;;;3.77;100.00
3917;BME280;1973;50.518;7.318;2023-04-26T05:51:43;101277.41;;;3.84;100.00
3917;BME280;1973;50.518;7.318;2023-04-26T05:54:09;101278.66;;;3.90;100.00
3917;BME280;1973;50.518;7.318;2023-04-26T05:56:36;101277.31;;;3.94;100.00
3917;BME280;1973;50.518;7.318;2023-04-26T05:59:02;101277.53;;;4.01;100.00
3917;BME280;1973;50.518;7.318;2023-04-26T06:01:29;101278.59;;;4.08;100.00
3917;BME280;1973;50.518;7.318;2023-04-26T06:03:56;101273.03;;;4.17;100.00
3917;BME280;1973;50.518;7.318;2023-04-26T06:06:26;101272.75;;;4.28;100.00
3917;BME280;1973;50.518;7.318;2023-04-26T06:08:53;101265.97;;;4.40;100.00
3917;BME280;1973;50.518;7.318;2023-04-26T06:11:20;101272.84;;;4.53;100.00
3917;BME280;1973;50.518;7.318;2023-04-26T06:13:47;101268.09;;;4.63;100.00
3917;BME280;1973;50.518;7.318;2023-04-26T06:16:13;101263.88;;;4.68;100.00
3917;BME280;1973;50.518;7.318;2023-04-26T06:18:40;101272.91;;;4.77;100.00
3917;BME280;1973;50.518;7.318;2023-04-26T06:21:06;101268.31;;;4.85;100.00
3917;BME280;1973;50.518;7.318;2023-04-26T06:23:33;101277.22;;;4.96;100.00
3917;BME280;1973;50.518;7.318;2023-04-26T06:25:59;101269.75;;;5.06;100.00
3917;BME280;1973;50.518;7.318;2023-04-26T06:28:26;101273.00;;;5.17;100.00
3917;BME280;1973;50.518;7.318;2023-04-26T06:30:52;101280.81;;;5.28;100.00
3917;BME280;1973;50.518;7.318;2023-04-26T06:33:19;101279.66;;;5.39;100.00
3917;BME280;1973;50.518;7.318;2023-04-26T06:35:45;101276.59;;;5.50;100.00
3917;BME280;1973;50.518;7.318;2023-04-26T06:38:12;101277.44;;;5.59;100.00
3917;BME280;1973;50.518;7.318;2023-04-26T06:40:38;101281.88;;;5.68;100.00
3917;BME280;1973;50.518;7.318;2023-04-26T06:43:05;101281.88;;;5.76;100.00
3917;BME280;1973;50.518;7.318;2023-04-26T06:45:31;101288.16;;;5.84;100.00
3917;BME280;1973;50.518;7.318;2023-04-26T06:47:58;101279.13;;;5.92;100.00
3917;BME280;1973;50.518;7.318;2023-04-26T06:50:26;101278.97;;;6.02;100.00
3917;BME280;1973;50.518;7.318;2023-04-26T06:52:52;101269.88;;;6.09;100.00
3917;BME280;1973;50.518;7.318;2023-04-26T06:55:19;101273.44;;;6.18;100.00
3917;BME280;1973;50.518;7.318;2023-04-26T06:57:46;101271.88;;;6.23;100.00
3917;BME280;1973;50.518;7.318;2023-04-26T07:00:13;101271.19;;;6.21;100.00
3917;BME280;1973;50.518;7.318;2023-04-26T07:02:39;101280.94;;;6.24;100.00
3917;BME280;1973;50.518;7.318;2023-04-26T07:05:07;101285.53;;;6.31;100.00
3917;BME280;1973;50.518;7.318;2023-04-26T07:07:34;101288.91;;;6.42;100.00
3917;BME280;1973;50.518;7.318;2023-04-26T07:10:01;101284.94;;;6.52;100.00
3917;BME280;1973;50.518;7.318;2023-04-26T07:12:28;101285.19;;;6.65;100.00
3917;BME280;1973;50.518;7.318;2023-04-26T07:14:54;101279.88;;;6.72;100.00
3917;BME280;1973;50.518;7.318;2023-04-26T07:17:21;101280.19;;;6.77;100.00
3917;BME280;1973;50.518;7.318;2023-04-26T07:19:47;101278.63;;;6.82;100.00
3917;BME280;1973;50.518;7.318;2023-04-26T07:22:13;101273.59;;;6.94;100.00
3917;BME280;1973;50.518;7.318;2023-04-26T07:24:40;101275.25;;;7.03;100.00
3917;BME280;1973;50.518;7.318;2023-04-26T07:27:06;101273.47;;;7.10;100.00
3917;BME280;1973;50.518;7.318;2023-04-26T07:29:33;101264.69;;;7.23;100.00
3917;BME280;1973;50.518;7.318;2023-04-26T07:32:00;101260.66;;;7.33;100.00
3917;BME280;1973;50.518;7.318;2023-04-26T07:34:26;101255.06;;;7.50;100.00
3917;BME280;1973;50.518;7.318;2023-04-26T07:36:52;101252.53;;;7.63;100.00
3917;BME280;1973;50.518;7.318;2023-04-26T07:39:19;101252.63;;;7.69;100.00
3917;BME280;1973;50.518;7.318;2023-04-26T07:41:45;101246.91;;;7.79;100.00
3917;BME280;1973;50.518;7.318;2023-04-26T07:44:12;101251.56;;;7.93;100.00
3917;BME280;1973;50.518;7.318;2023-04-26T07:46:38;101244.09;;;8.02;100.00
3917;BME280;1973;50.518;7.318;2023-04-26T07:49:05;101244.94;;;8.17;100.00
3917;BME280;1973;50.518;7.318;2023-04-26T07:51:31;101254.25;;;8.30;100.00
3917;BME280;1973;50.518;7.318;2023-04-26T07:53:58;101255.66;;;8.41;100.00
3917;BME280;1973;50.518;7.318;2023-04-26T07:56:25;101252.03;;;8.55;100.00
3917;BME280;1973;50.518;7.318;2023-04-26T07:58:51;101253.91;;;8.69;100.00
3917;BME280;1973;50.518;7.318;2023-04-26T08:01:18;101255.97;;;8.82;100.00
3917;BME280;1973;50.518;7.318;2023-04-26T08:03:44;101259.25;;;8.92;100.00
3917;BME280;1973;50.518;7.318;2023-04-26T08:06:11;101255.16;;;9.03;100.00
3917;BME280;1973;50.518;7.318;2023-04-26T08:08:38;101250.41;;;9.11;100.00
3917;BME280;1973;50.518;7.318;2023-04-26T08:11:10;101251.97;;;9.20;100.00
3917;BME280;1973;50.518;7.318;2023-04-26T08:13:36;101251.44;;;9.32;100.00
3917;BME280;1973;50.518;7.318;2023-04-26T08:16:03;101248.38;;;9.41;100.00
3917;BME280;1973;50.518;7.318;2023-04-26T08:18:30;101247.63;;;9.54;100.00
3917;BME280;1973;50.518;7.318;2023-04-26T08:20:56;101245.66;;;9.69;100.00
3917;BME280;1973;50.518;7.318;2023-04-26T08:23:23;101257.19;;;9.79;100.00
3917;BME280;1973;50.518;7.318;2023-04-26T08:25:50;101236.75;;;9.95;100.00
3917;BME280;1973;50.518;7.318;2023-04-26T08:28:16;101242.16;;;10.09;100.00
3917;BME280;1973;50.518;7.318;2023-04-26T08:30:43;101241.38;;;10.15;100.00
3917;BME280;1973;50.518;7.318;2023-04-26T08:33:09;101237.63;;;10.23;100.00
3917;BME280;1973;50.518;7.318;2023-04-26T08:35:36;101237.25;;;10.33;100.00
3917;BME280;1973;50.518;7.318;2023-04-26T08:38:02;101238.53;;;10.37;99.23
3917;BME280;1973;50.518;7.318;2023-04-26T08:40:29;101233.91;;;10.44;95.31
3917;BME280;1973;50.518;7.318;2023-04-26T08:42:55;101221.25;;;10.49;92.14
3917;BME280;1973;50.518;7.318;2023-04-26T08:45:23;101226.78;;;10.56;89.96
3917;BME280;1973;50.518;7.318;2023-04-26T08:47:52;101218.34;;;10.64;85.54
3917;BME280;1973;50.518;7.318;2023-04-26T08:50:21;101228.53;;;10.70;86.35
3917;BME280;1973;50.518;7.318;2023-04-26T08:52:51;101219.84;;;10.73;82.62
3917;BME280;1973;50.518;7.318;2023-04-26T08:55:18;101224.31;;;10.74;82.31
3917;BME280;1973;50.518;7.318;2023-04-26T08:57:46;101224.53;;;10.79;81.19
3917;BME280;1973;50.518;7.318;2023-04-26T09:00:14;101217.97;;;10.80;80.79
3917;BME280;1973;50.518;7.318;2023-04-26T09:02:46;101220.56;;;10.88;78.46
3917;BME280;1973;50.518;7.318;2023-04-26T09:05:13;101217.59;;;10.90;76.09
3917;BME280;1973;50.518;7.318;2023-04-26T09:07:43;101211.06;;;10.97;75.69
3917;BME280;1973;50.518;7.318;2023-04-26T09:10:12;101216.13;;;11.00;73.83
3917;BME280;1973;50.518;7.318;2023-04-26T09:12:39;101209.97;;;11.05;73.42
3917;BME280;1973;50.518;7.318;2023-04-26T09:15:06;101214.00;;;10.96;69.67
3917;BME280;1973;50.518;7.318;2023-04-26T09:17:36;101209.09;;;10.85;66.70
3917;BME280;1973;50.518;7.318;2023-04-26T09:22:51;101210.88;;;11.12;70.53
3917;BME280;1973;50.518;7.318;2023-04-26T09:25:26;101206.22;;;11.19;64.26
3917;BME280;1973;50.518;7.318;2023-04-26T09:27:53;101209.81;;;11.33;66.54
3917;BME280;1973;50.518;7.318;2023-04-26T09:30:20;101201.56;;;11.46;66.75
3917;BME280;1973;50.518;7.318;2023-04-26T09:32:58;101192.66;;;11.63;62.16
3917;BME280;1973;50.518;7.318;2023-04-26T09:35:36;101196.06;;;11.85;60.29
3917;BME280;1973;50.518;7.318;2023-04-26T09:38:13;101192.22;;;11.99;62.19
3917;BME280;1973;50.518;7.318;2023-04-26T09:40:48;101187.31;;;12.14;56.40
3917;BME280;1973;50.518;7.318;2023-04-26T09:43:19;101177.72;;;12.30;61.12
3917;BME280;1973;50.518;7.318;2023-04-26T09:45:54;101177.66;;;12.43;55.41
3917;BME280;1973;50.518;7.318;2023-04-26T09:50:54;101182.94;;;12.51;58.03
3917;BME280;1973;50.518;7.318;2023-04-26T09:53:35;101197.59;;;12.52;51.96
3917;BME280;1973;50.518;7.318;2023-04-26T09:56:06;101191.25;;;12.45;55.82
3917;BME280;1973;50.518;7.318;2023-04-26T10:01:24;101192.22;;;12.06;54.28
3917;BME280;1973;50.518;7.318;2023-04-26T10:03:52;101188.38;;;12.13;55.32
3917;BME280;1973;50.518;7.318;2023-04-26T10:06:19;101175.41;;;12.20;54.71
3917;BME280;1973;50.518;7.318;2023-04-26T10:08:45;101172.19;;;12.24;54.45
3917;BME280;1973;50.518;7.318;2023-04-26T10:11:12;101173.19;;;12.42;55.07
3917;BME280;1973;50.518;7.318;2023-04-26T10:13:39;101162.88;;;12.69;55.79
3917;BME280;1973;50.518;7.318;2023-04-26T10:16:07;101151.00;;;13.00;55.40
3917;BME280;1973;50.518;7.318;2023-04-26T10:18:35;101157.06;;;13.22;53.35
3917;BME280;1973;50.518;7.318;2023-04-26T10:21:30;101146.91;;;13.40;50.23
3917;BME280;1973;50.518;7.318;2023-04-26T10:23:55;101148.19;;;13.38;50.76
3917;BME280;1973;50.518;7.318;2023-04-26T10:26:53;101146.88;;;13.65;46.63
3917;BME280;1973;50.518;7.318;2023-04-26T10:29:23;101150.06;;;13.87;50.42
3917;BME280;1973;50.518;7.318;2023-04-26T10:34:35;101144.34;;;14.06;49.92
3917;BME280;1973;50.518;7.318;2023-04-26T10:37:06;101146.63;;;14.09;46.52
3917;BME280;1973;50.518;7.318;2023-04-26T10:39:34;101150.41;;;14.15;48.56
3917;BME280;1973;50.518;7.318;2023-04-26T10:42:23;101140.97;;;14.23;48.79
3917;BME280;1973;50.518;7.318;2023-04-26T10:44:58;101137.78;;;14.19;45.80
3917;BME280;1973;50.518;7.318;2023-04-26T10:47:34;101132.97;;;14.14;43.82
3917;BME280;1973;50.518;7.318;2023-04-26T10:50:06;101130.97;;;14.03;46.59
3917;BME280;1973;50.518;7.318;2023-04-26T10:53:23;101131.56;;;14.24;45.70
3917;BME280;1973;50.518;7.318;2023-04-26T10:55:41;101136.09;;;14.54;41.79
3917;BME280;1973;50.518;7.318;2023-04-26T10:58:30;101126.63;;;14.62;41.53
3917;BME280;1973;50.518;7.318;2023-04-26T11:01:16;101128.38;;;14.56;42.69
3917;BME280;1973;50.518;7.318;2023-04-26T11:04:00;101133.56;;;14.53;42.19
3917;BME280;1973;50.518;7.318;2023-04-26T11:06:55;101115.47;;;14.50;40.48
3917;BME280;1973;50.518;7.318;2023-04-26T11:09:36;101116.63;;;14.61;41.90
3917;BME280;1973;50.518;7.318;2023-04-26T11:12:04;101116.72;;;14.84;43.90
3917;BME280;1973;50.518;7.318;2023-04-26T11:14:32;101107.38;;;15.08;43.60
3917;BME280;1973;50.518;7.318;2023-04-26T11:17:04;101107.47;;;15.02;41.93
3917;BME280;1973;50.518;7.318;2023-04-26T11:19:31;101103.81;;;15.43;42.40
3917;BME280;1973;50.518;7.318;2023-04-26T11:21:59;101099.47;;;15.47;41.77
3917;BME280;1973;50.518;7.318;2023-04-26T11:24:30;101104.66;;;15.43;41.43
3917;BME280;1973;50.518;7.318;2023-04-26T11:26:56;101101.09;;;15.66;41.14
3917;BME280;1973;50.518;7.318;2023-04-26T11:29:24;101099.81;;;15.27;41.08
3917;BME280;1973;50.518;7.318;2023-04-26T11:31:52;101094.31;;;15.62;41.06
3917;BME280;1973;50.518;7.318;2023-04-26T11:34:32;101092.56;;;15.38;38.35
3917;BME280;1973;50.518;7.318;2023-04-26T11:37:04;101105.28;;;14.92;40.02
3917;BME280;1973;50.518;7.318;2023-04-26T11:39:34;101090.06;;;15.36;41.39
3917;BME280;1973;50.518;7.318;2023-04-26T11:42:08;101091.78;;;15.72;39.89
3917;BME280;1973;50.518;7.318;2023-04-26T11:44:36;101084.28;;;15.84;40.12
3917;BME280;1973;50.518;7.318;2023-04-26T11:47:04;101090.28;;;15.35;39.73
3917;BME280;1973;50.518;7.318;2023-04-26T11:49:35;101086.03;;;15.09;40.06
3917;BME280;1973;50.518;7.318;2023-04-26T11:52:03;101081.22;;;15.16;39.96
3917;BME280;1973;50.518;7.318;2023-04-26T11:54:35;101073.78;;;15.63;39.41
3917;BME280;1973;50.518;7.318;2023-04-26T11:57:12;101066.78;;;15.84;37.96
3917;BME280;1973;50.518;7.318;2023-04-26T11:59:42;101076.56;;;15.75;39.28
3917;BME280;1973;50.518;7.318;2023-04-26T12:02:09;101071.00;;;15.63;39.32
3917;BME280;1973;50.518;7.318;2023-04-26T12:04:36;101062.66;;;15.17;39.60
3917;BME280;1973;50.518;7.318;2023-04-26T12:07:04;101076.31;;;15.30;39.21
3917;BME280;1973;50.518;7.318;2023-04-26T12:09:32;101068.50;;;15.62;39.29
3917;BME280;1973;50.518;7.318;2023-04-26T12:11:59;101070.78;;;15.76;39.09
3917;BME280;1973;50.518;7.318;2023-04-26T12:14:35;101071.56;;;15.30;37.56
3917;BME280;1973;50.518;7.318;2023-04-26T12:17:03;101064.56;;;15.16;39.18
3917;BME280;1973;50.518;7.318;2023-04-26T12:19:38;101071.41;;;15.55;39.74
3917;BME280;1973;50.518;7.318;2023-04-26T12:22:06;101073.91;;;15.80;39.76
3917;BME280;1973;50.518;7.318;2023-04-26T12:24:34;101069.78;;;15.94;39.19
3917;BME280;1973;50.518;7.318;2023-04-26T12:27:05;101064.44;;;16.04;39.09
3917;BME280;1973;50.518;7.318;2023-04-26T12:29:33;101065.78;;;15.90;39.80
3917;BME280;1973;50.518;7.318;2023-04-26T12:32:00;101066.84;;;16.00;40.02
3917;BME280;1973;50.518;7.318;2023-04-26T12:34:27;101072.06;;;15.85;39.26
3917;BME280;1973;50.518;7.318;2023-04-26T12:36:53;101055.03;;;15.93;39.46
3917;BME280;1973;50.518;7.318;2023-04-26T12:39:20;101064.84;;;15.96;38.97
3917;BME280;1973;50.518;7.318;2023-04-26T12:41:46;101061.22;;;15.84;38.71
3917;BME280;1973;50.518;7.318;2023-04-26T12:44:13;101060.88;;;15.80;38.86
3917;BME280;1973;50.518;7.318;2023-04-26T12:46:40;101065.44;;;15.86;38.57
3917;BME280;1973;50.518;7.318;2023-04-26T12:49:06;101067.84;;;15.94;39.37
3917;BME280;1973;50.518;7.318;2023-04-26T12:51:33;101056.94;;;16.04;38.14
3917;BME280;1973;50.518;7.318;2023-04-26T12:53:59;101061.72;;;15.81;38.17
3917;BME280;1973;50.518;7.318;2023-04-26T12:56:28;101068.00;;;15.88;38.07
3917;BME280;1973;50.518;7.318;2023-04-26T12:58:54;101059.88;;;15.98;38.45
3917;BME280;1973;50.518;7.318;2023-04-26T13:01:21;101063.00;;;16.01;38.68
3917;BME280;1973;50.518;7.318;2023-04-26T13:03:48;101062.75;;;16.15;38.74
3917;BME280;1973;50.518;7.318;2023-04-26T13:06:15;101069.69;;;16.29;38.96
3917;BME280;1973;50.518;7.318;2023-04-26T13:08:41;101057.09;;;16.38;38.06
3917;BME280;1973;50.518;7.318;2023-04-26T13:11:08;101054.34;;;16.26;38.19
3917;BME280;1973;50.518;7.318;2023-04-26T13:13:34;101050.34;;;16.34;38.00
3917;BME280;1973;50.518;7.318;2023-04-26T13:16:09;101052.09;;;16.12;38.10
3917;BME280;1973;50.518;7.318;2023-04-26T13:18:37;101044.63;;;16.00;37.97
3917;BME280;1973;50.518;7.318;2023-04-26T13:21:03;101045.63;;;15.94;38.24
3917;BME280;1973;50.518;7.318;2023-04-26T13:23:30;101054.19;;;15.93;38.60
3917;BME280;1973;50.518;7.318;2023-04-26T13:25:57;101044.56;;;15.84;38.18